Time;durP1;ratioP1;P1;durP2;ratioP2;P2;SDS_P1;SDS_P2;PMS_P1;PMS_P2;Temp;Humidity;BMP_temperature;BMP_pressure;BME280_temperature;BME280_humidity;BME280_pressure;Samples;Min_cycle;Max_cycle;Signal;HPM_P1;HPM_P2
2022/01/25 00:28:27;;;;;;;;;;;4.70;98.90;;;;;;5046797;28;20270;-69
2022/01/25 00:33:25;;;;;;;;;;;4.70;98.90;;;;;;5044058;28;19912;-69
2022/01/25 00:35:51;;;;;;;;;;;4.60;98.90;;;;;;5041207;28;20043;-69
2022/01/25 00:38:16;;;;;;;;;;;4.70;98.90;;;;;;5039766;28;19971;-69
2022/01/25 00:40:42;;;;;;;;;;;4.70;98.90;;;;;;5030927;28;19917;-69
2022/01/25 00:43:08;;;;;;;;;;;4.60;98.90;;;;;;5045433;28;19944;-69
2022/01/25 00:45:33;;;;;;;;;;;4.60;98.90;;;;;;5045790;28;19917;-69
2022/01/25 00:48:02;;;;;;;;;;;4.60;98.90;;;;;;5042800;28;19917;-69
2022/01/25 00:50:31;;;;;;;;;;;4.60;98.90;;;;;;5044059;28;19923;-69
2022/01/25 00:55:22;;;;;;;;;;;4.70;98.90;;;;;;5048420;28;20004;-69
2022/01/25 00:57:48;;;;;;;;;;;4.60;98.90;;;;;;5041776;28;20000;-69
2022/01/25 01:00:14;;;;;;;;;;;4.60;98.90;;;;;;5047723;28;19920;-69
2022/01/25 01:02:39;;;;;;;;;;;4.70;98.90;;;;;;5045495;28;19995;-69
2022/01/25 01:05:05;;;;;;;;;;;4.70;98.90;;;;;;5062396;28;19913;-69
2022/01/25 01:07:31;;;;;;;;;;;4.70;99.00;;;;;;5030079;28;20037;-69
2022/01/25 01:09:59;;;;;;;;;;;4.60;98.90;;;;;;5061662;28;19912;-69
2022/01/25 01:13:03;;;;;;;;;;;4.60;98.90;;;;;;5041983;28;20281;-69
2022/01/25 01:15:37;;;;;;;;;;;4.60;98.90;;;;;;5048492;28;20680;-69
2022/01/25 01:29:20;;;;;;;;;;;4.60;98.90;;;;;;5045377;28;20437;-69
2022/01/25 01:40:00;;;;;;;;;;;4.60;98.90;;;;;;5043905;28;19916;-69
2022/01/25 01:47:34;;;;;;;;;;;4.60;98.90;;;;;;5048131;28;20615;-69
2022/01/25 01:50:01;;;;;;;;;;;4.60;98.90;;;;;;5041918;28;19921;-69
2022/01/25 01:52:28;;;;;;;;;;;4.60;98.90;;;;;;5046582;28;19924;-69
2022/01/25 01:54:53;;;;;;;;;;;4.60;98.90;;;;;;5043666;28;20817;-69
2022/01/25 01:57:19;;;;;;;;;;;4.60;98.90;;;;;;5035666;28;19920;-69
2022/01/25 01:59:44;;;;;;;;;;;4.60;98.90;;;;;;5045739;28;19944;-69
2022/01/25 02:02:10;;;;;;;;;;;4.60;98.90;;;;;;5052504;28;19920;-69
2022/01/25 02:04:35;;;;;;;;;;;4.60;98.90;;;;;;5045689;28;19999;-69
2022/01/25 02:07:01;;;;;;;;;;;4.60;98.90;;;;;;5045702;28;19947;-69
2022/01/25 02:09:27;;;;;;;;;;;4.60;98.90;;;;;;5045022;28;19913;-69
2022/01/25 02:11:52;;;;;;;;;;;4.60;99.20;;;;;;5042242;28;19929;-69
2022/01/25 02:14:18;;;;;;;;;;;4.60;98.90;;;;;;5045549;28;19974;-69
2022/01/25 02:24:45;;;;;;;;;;;4.60;98.90;;;;;;5043928;28;19923;-69
2022/01/25 02:27:11;;;;;;;;;;;4.60;98.90;;;;;;5044372;28;19921;-69
2022/01/25 02:29:37;;;;;;;;;;;4.50;98.90;;;;;;5043828;28;20478;-69
2022/01/25 02:32:03;;;;;;;;;;;4.60;98.90;;;;;;5043573;28;19992;-69
2022/01/25 02:34:28;;;;;;;;;;;4.50;98.90;;;;;;5046848;28;20625;-69
2022/01/25 02:37:01;;;;;;;;;;;4.60;98.90;;;;;;5043158;28;19969;-69
2022/01/25 02:39:27;;;;;;;;;;;4.60;98.90;;;;;;5066285;28;20000;-69
2022/01/25 02:41:53;;;;;;;;;;;4.60;98.90;;;;;;5044198;28;20342;-69
2022/01/25 02:44:24;;;;;;;;;;;4.60;98.90;;;;;;5062480;28;19912;-69
2022/01/25 02:49:17;;;;;;;;;;;4.50;98.90;;;;;;5046532;28;20011;-69
2022/01/25 02:51:44;;;;;;;;;;;4.60;98.90;;;;;;5044240;28;20007;-69
2022/01/25 02:54:10;;;;;;;;;;;4.50;98.90;;;;;;5049882;28;19916;-69
2022/01/25 02:56:37;;;;;;;;;;;4.50;98.90;;;;;;5047447;28;20577;-69
2022/01/25 02:59:04;;;;;;;;;;;4.60;98.90;;;;;;5044359;28;20613;-69
2022/01/25 03:01:30;;;;;;;;;;;4.50;98.90;;;;;;5045683;28;19917;-69
2022/01/25 03:03:56;;;;;;;;;;;4.50;98.90;;;;;;5059857;28;19919;-69
2022/01/25 03:06:22;;;;;;;;;;;4.50;98.90;;;;;;5046611;28;20020;-69
2022/01/25 03:08:48;;;;;;;;;;;4.60;98.90;;;;;;5044189;28;20356;-69
2022/01/25 03:11:14;;;;;;;;;;;4.50;98.90;;;;;;5048960;28;19928;-69
2022/01/25 03:13:54;;;;;;;;;;;4.50;98.90;;;;;;5042490;28;19909;-69
2022/01/25 03:18:55;;;;;;;;;;;4.50;98.90;;;;;;5041635;28;20000;-69
2022/01/25 03:21:42;;;;;;;;;;;4.50;98.90;;;;;;5049378;28;20011;-69
2022/01/25 03:24:07;;;;;;;;;;;4.50;98.90;;;;;;5041938;28;19921;-69
2022/01/25 03:26:35;;;;;;;;;;;4.50;98.90;;;;;;5046847;28;20252;-69
2022/01/25 03:29:00;;;;;;;;;;;4.50;98.90;;;;;;5042588;28;19916;-69
2022/01/25 03:31:26;;;;;;;;;;;4.50;98.90;;;;;;5048082;28;19946;-69
2022/01/25 03:33:52;;;;;;;;;;;4.50;98.90;;;;;;5040182;28;19995;-69
2022/01/25 03:36:17;;;;;;;;;;;4.50;98.90;;;;;;5049388;28;19917;-69
2022/01/25 03:38:43;;;;;;;;;;;4.50;98.90;;;;;;5039805;28;19915;-69
2022/01/25 03:41:09;;;;;;;;;;;4.50;98.90;;;;;;5048190;28;19923;-69
2022/01/25 03:43:36;;;;;;;;;;;4.50;98.90;;;;;;5041907;28;19921;-69
2022/01/25 03:46:15;;;;;;;;;;;4.50;98.90;;;;;;5047452;28;19931;-69
2022/01/25 03:51:06;;;;;;;;;;;4.50;98.90;;;;;;5038853;28;20262;-69
2022/01/25 03:53:32;;;;;;;;;;;4.50;98.90;;;;;;5026283;28;20382;-69
2022/01/25 03:55:57;;;;;;;;;;;4.50;98.90;;;;;;5043085;28;19940;-69
2022/01/25 03:58:23;;;;;;;;;;;4.50;98.90;;;;;;5051205;28;19916;-69
2022/01/25 04:00:49;;;;;;;;;;;4.50;98.90;;;;;;5024608;28;19928;-69
2022/01/25 04:03:27;;;;;;;;;;;4.50;98.90;;;;;;5028953;28;19952;-69
2022/01/25 04:05:54;;;;;;;;;;;4.50;98.90;;;;;;5039092;28;20316;-69
2022/01/25 04:08:20;;;;;;;;;;;4.50;98.90;;;;;;5050558;28;19935;-69
2022/01/25 04:10:46;;;;;;;;;;;4.50;98.90;;;;;;5041488;28;19920;-69
2022/01/25 04:13:12;;;;;;;;;;;4.50;98.90;;;;;;5056648;28;19970;-69
2022/01/25 04:15:46;;;;;;;;;;;4.50;98.90;;;;;;5042220;28;19970;-69
2022/01/25 04:24:43;;;;;;;;;;;4.50;98.90;;;;;;5039263;28;19917;-69
2022/01/25 04:26:25;;;;;;;;;;;4.50;98.90;;;;;;5041885;28;19924;-69
2022/01/25 04:28:50;;;;;;;;;;;4.50;98.90;;;;;;5045175;28;19917;-69
2022/01/25 04:31:18;;;;;;;;;;;4.50;98.90;;;;;;5042005;28;19921;-69
2022/01/25 04:33:56;;;;;;;;;;;4.50;98.90;;;;;;5046595;28;20007;-69
2022/01/25 04:50:01;;;;;;;;;;;4.50;98.90;;;;;;5051239;28;20101;-69
2022/01/25 04:52:32;;;;;;;;;;;4.50;98.90;;;;;;5044857;28;20473;-69
2022/01/25 04:55:17;;;;;;;;;;;4.50;98.90;;;;;;5048734;28;19909;-69
2022/01/25 04:57:53;;;;;;;;;;;4.50;98.80;;;;;;5046556;28;19940;-69
2022/01/25 05:00:21;;;;;;;;;;;4.50;98.90;;;;;;5049453;28;19970;-69
2022/01/25 05:02:52;;;;;;;;;;;4.40;98.90;;;;;;5045262;28;19924;-69
2022/01/25 05:10:16;;;;;;;;;;;4.40;98.90;;;;;;5048162;28;19928;-69
2022/01/25 05:12:50;;;;;;;;;;;4.40;98.90;;;;;;5043326;28;20672;-69
2022/01/25 05:15:24;;;;;;;;;;;4.40;98.80;;;;;;5052672;28;20414;-69
2022/01/25 05:23:18;;;;;;;;;;;4.50;98.90;;;;;;5046196;28;20066;-69
2022/01/25 05:25:43;;;;;;;;;;;4.50;98.90;;;;;;5049713;28;19917;-69
2022/01/25 05:28:09;;;;;;;;;;;4.40;98.80;;;;;;5047576;28;19920;-69
2022/01/25 05:30:34;;;;;;;;;;;4.40;98.80;;;;;;5048655;28;19912;-69
2022/01/25 05:33:00;;;;;;;;;;;4.40;98.80;;;;;;5049738;28;20753;-69
2022/01/25 05:35:25;;;;;;;;;;;4.40;98.80;;;;;;5046266;28;19916;-69
2022/01/25 05:37:51;;;;;;;;;;;4.40;98.80;;;;;;5030607;28;20462;-69
2022/01/25 05:40:27;;;;;;;;;;;4.40;98.80;;;;;;5045973;28;19909;-69
2022/01/25 05:46:02;;;;;;;;;;;4.40;98.80;;;;;;5044228;28;19927;-69
2022/01/25 05:48:27;;;;;;;;;;;4.40;98.80;;;;;;5048318;28;19921;-69
2022/01/25 05:50:53;;;;;;;;;;;4.40;98.80;;;;;;5043159;28;19929;-69
2022/01/25 05:53:18;;;;;;;;;;;4.40;98.80;;;;;;5055355;28;20442;-69
2022/01/25 05:55:44;;;;;;;;;;;4.40;98.80;;;;;;5046911;28;19913;-69
2022/01/25 05:58:10;;;;;;;;;;;4.40;98.80;;;;;;5049245;28;19915;-69
2022/01/25 06:00:35;;;;;;;;;;;4.40;98.80;;;;;;5044337;28;19936;-69
2022/01/25 06:03:03;;;;;;;;;;;4.40;98.80;;;;;;5050235;28;19920;-69
2022/01/25 06:05:28;;;;;;;;;;;4.40;98.80;;;;;;5044064;28;20042;-69
2022/01/25 06:07:54;;;;;;;;;;;4.40;99.10;;;;;;5051875;28;20003;-69
2022/01/25 06:10:19;;;;;;;;;;;4.40;98.80;;;;;;5045841;28;20589;-69
2022/01/25 06:12:45;;;;;;;;;;;4.40;98.80;;;;;;5048679;28;19995;-69
2022/01/25 06:15:11;;;;;;;;;;;4.40;98.80;;;;;;5044427;28;20426;-69
2022/01/25 06:17:36;;;;;;;;;;;4.40;98.80;;;;;;5048973;28;19959;-69
2022/01/25 06:20:02;;;;;;;;;;;4.40;98.80;;;;;;5050984;28;20784;-69
2022/01/25 06:22:27;;;;;;;;;;;4.40;98.80;;;;;;5047224;28;19913;-69
2022/01/25 06:24:53;;;;;;;;;;;4.40;98.80;;;;;;5045089;28;20007;-69
2022/01/25 06:27:19;;;;;;;;;;;4.40;98.80;;;;;;5045066;28;19917;-69
2022/01/25 06:29:45;;;;;;;;;;;4.40;98.80;;;;;;5052635;28;19952;-69
2022/01/25 06:32:10;;;;;;;;;;;4.40;98.80;;;;;;5043725;28;20342;-69
2022/01/25 06:34:36;;;;;;;;;;;4.40;98.80;;;;;;5057915;28;19965;-69
2022/01/25 06:37:02;;;;;;;;;;;4.40;98.80;;;;;;5044095;28;20012;-69
2022/01/25 06:39:27;;;;;;;;;;;4.40;98.80;;;;;;5048403;28;19979;-69
2022/01/25 06:41:53;;;;;;;;;;;4.40;98.80;;;;;;5041153;28;20343;-69
2022/01/25 06:44:18;;;;;;;;;;;4.40;98.70;;;;;;5050476;28;19912;-69
2022/01/25 06:49:47;;;;;;;;;;;4.40;98.70;;;;;;5044293;28;20038;-69
2022/01/25 06:52:12;;;;;;;;;;;4.40;98.70;;;;;;5040948;28;20007;-69
2022/01/25 06:54:38;;;;;;;;;;;4.40;98.70;;;;;;5043974;28;20152;-69
2022/01/25 06:57:04;;;;;;;;;;;4.40;98.70;;;;;;5043188;28;20072;-69
2022/01/25 06:59:29;;;;;;;;;;;4.30;98.70;;;;;;5047069;28;19939;-69
2022/01/25 07:01:55;;;;;;;;;;;4.40;98.80;;;;;;5044325;28;20846;-69
2022/01/25 07:04:20;;;;;;;;;;;4.40;98.80;;;;;;5046480;28;19999;-69
2022/01/25 07:06:46;;;;;;;;;;;4.40;98.80;;;;;;5026779;28;20447;-69
2022/01/25 07:09:12;;;;;;;;;;;4.30;98.70;;;;;;5045489;28;20018;-69
2022/01/25 07:11:37;;;;;;;;;;;4.40;98.70;;;;;;5047705;28;19956;-69
2022/01/25 07:14:03;;;;;;;;;;;4.40;98.80;;;;;;5042413;28;20584;-69
2022/01/25 07:16:28;;;;;;;;;;;4.40;98.80;;;;;;5046975;28;19923;-69
2022/01/25 07:18:53;;;;;;;;;;;4.40;98.80;;;;;;5057284;28;19916;-69
2022/01/25 07:21:19;;;;;;;;;;;4.30;98.70;;;;;;5049383;28;19913;-69
2022/01/25 07:23:44;;;;;;;;;;;4.30;98.70;;;;;;5038948;28;19912;-69
2022/01/25 07:26:10;;;;;;;;;;;4.30;98.80;;;;;;5051070;28;20268;-69
2022/01/25 07:28:36;;;;;;;;;;;4.40;98.70;;;;;;5046377;28;19917;-69
2022/01/25 07:31:02;;;;;;;;;;;4.30;98.70;;;;;;5044840;28;19924;-69
2022/01/25 07:33:28;;;;;;;;;;;4.30;98.70;;;;;;5041271;28;19921;-69
2022/01/25 07:35:53;;;;;;;;;;;4.30;98.70;;;;;;5046565;28;19909;-69
2022/01/25 07:38:19;;;;;;;;;;;4.30;98.70;;;;;;5046501;28;19952;-69
2022/01/25 07:40:45;;;;;;;;;;;4.30;98.70;;;;;;5045305;28;20373;-69
2022/01/25 07:43:10;;;;;;;;;;;4.30;98.70;;;;;;5043650;28;19912;-69
2022/01/25 07:45:36;;;;;;;;;;;4.40;98.70;;;;;;5043720;28;20391;-69
2022/01/25 07:48:03;;;;;;;;;;;4.30;98.70;;;;;;5050931;28;19913;-69
2022/01/25 07:50:29;;;;;;;;;;;4.40;98.70;;;;;;5040794;28;20590;-69
2022/01/25 07:52:55;;;;;;;;;;;4.30;98.70;;;;;;5049738;28;19912;-69
2022/01/25 07:55:20;;;;;;;;;;;4.30;98.70;;;;;;5043503;28;19917;-69
2022/01/25 07:57:46;;;;;;;;;;;4.30;99.00;;;;;;5046480;28;19913;-69
2022/01/25 08:00:12;;;;;;;;;;;4.30;98.70;;;;;;5039468;28;19917;-69
2022/01/25 08:02:38;;;;;;;;;;;4.40;98.70;;;;;;5045992;28;19932;-69
2022/01/25 08:05:03;;;;;;;;;;;4.30;98.60;;;;;;5028003;28;20366;-69
2022/01/25 08:07:29;;;;;;;;;;;4.30;98.60;;;;;;5026156;28;19952;-69
2022/01/25 08:09:54;;;;;;;;;;;4.40;98.70;;;;;;5041550;28;19913;-69
2022/01/25 08:12:20;;;;;;;;;;;4.40;98.70;;;;;;5045689;28;19912;-69
2022/01/25 08:14:45;;;;;;;;;;;4.30;98.60;;;;;;5031217;28;20400;-69
2022/01/25 08:17:11;;;;;;;;;;;4.30;98.60;;;;;;5044854;28;20036;-69
2022/01/25 08:19:37;;;;;;;;;;;4.30;98.60;;;;;;5048999;28;19952;-70
2022/01/25 08:22:02;;;;;;;;;;;4.40;98.60;;;;;;5060019;28;20009;-68
2022/01/25 08:24:29;;;;;;;;;;;4.30;98.60;;;;;;5046776;28;20054;-68
2022/01/25 08:26:55;;;;;;;;;;;4.40;98.70;;;;;;5041163;28;19920;-68
2022/01/25 08:29:21;;;;;;;;;;;4.40;98.70;;;;;;5055367;28;20348;-68
2022/01/25 08:31:46;;;;;;;;;;;4.30;98.60;;;;;;5042260;28;19935;-68
2022/01/25 08:34:12;;;;;;;;;;;4.40;98.90;;;;;;5045118;28;19912;-68
2022/01/25 08:36:38;;;;;;;;;;;4.40;98.70;;;;;;5042877;28;19912;-68
2022/01/25 08:39:04;;;;;;;;;;;4.30;98.60;;;;;;5044486;28;19913;-69
2022/01/25 08:41:30;;;;;;;;;;;4.30;98.60;;;;;;5042246;28;19943;-68
2022/01/25 08:43:55;;;;;;;;;;;4.40;98.70;;;;;;5044316;28;20625;-68
2022/01/25 08:46:21;;;;;;;;;;;4.40;98.60;;;;;;5044550;28;19924;-69
2022/01/25 08:48:46;;;;;;;;;;;4.30;98.60;;;;;;5044913;28;19955;-68
2022/01/25 08:51:13;;;;;;;;;;;4.40;98.60;;;;;;5042143;28;19924;-69
2022/01/25 08:53:38;;;;;;;;;;;4.30;98.60;;;;;;5043550;28;19912;-68
2022/01/25 08:56:05;;;;;;;;;;;4.40;98.60;;;;;;5045491;28;19929;-69
2022/01/25 08:58:30;;;;;;;;;;;4.40;98.60;;;;;;5044382;28;19909;-68
2022/01/25 09:00:56;;;;;;;;;;;4.30;98.60;;;;;;5044753;28;19944;-68
2022/01/25 09:03:22;;;;;;;;;;;4.30;98.60;;;;;;5040493;28;20281;-68
2022/01/25 09:05:47;;;;;;;;;;;4.40;98.60;;;;;;5048800;28;19909;-68
2022/01/25 09:08:23;;;;;;;;;;;4.40;98.60;;;;;;5042103;28;20393;-68
2022/01/25 09:10:51;;;;;;;;;;;4.40;98.60;;;;;;5043201;28;19917;-68
2022/01/25 09:13:17;;;;;;;;;;;4.40;98.60;;;;;;5039640;28;20494;-68
2022/01/25 09:15:43;;;;;;;;;;;4.40;98.80;;;;;;5045256;28;19909;-68
2022/01/25 09:18:08;;;;;;;;;;;4.40;98.60;;;;;;5042553;28;19917;-69
2022/01/25 09:20:34;;;;;;;;;;;4.40;98.60;;;;;;5045366;28;20336;-68
2022/01/25 09:22:59;;;;;;;;;;;4.40;98.60;;;;;;5053777;28;19921;-68
2022/01/25 09:25:25;;;;;;;;;;;4.40;98.60;;;;;;5047019;28;20427;-69
2022/01/25 09:27:50;;;;;;;;;;;4.40;98.60;;;;;;5044026;28;19917;-69
2022/01/25 09:30:16;;;;;;;;;;;4.40;98.60;;;;;;5046396;28;20541;-68
2022/01/25 09:32:41;;;;;;;;;;;4.40;98.60;;;;;;5043734;28;19978;-68
2022/01/25 09:35:07;;;;;;;;;;;4.40;98.60;;;;;;5047138;28;19924;-69
2022/01/25 09:37:33;;;;;;;;;;;4.40;98.60;;;;;;5046439;28;19969;-68
2022/01/25 09:39:58;;;;;;;;;;;4.40;98.50;;;;;;5045905;28;20365;-68
2022/01/25 09:42:28;;;;;;;;;;;4.40;98.50;;;;;;5049704;28;19913;-69
2022/01/25 09:44:54;;;;;;;;;;;4.40;98.50;;;;;;5043396;28;20023;-68
2022/01/25 09:47:19;;;;;;;;;;;4.40;98.50;;;;;;5049209;28;19920;-68
2022/01/25 09:49:45;;;;;;;;;;;4.40;98.50;;;;;;5045964;28;19908;-68
2022/01/25 09:52:11;;;;;;;;;;;4.40;98.50;;;;;;5046364;28;19925;-68
2022/01/25 09:54:36;;;;;;;;;;;4.40;98.50;;;;;;5045077;28;20417;-68
2022/01/25 09:57:03;;;;;;;;;;;4.50;98.50;;;;;;5028595;28;19913;-68
2022/01/25 09:59:29;;;;;;;;;;;4.40;98.50;;;;;;5047858;28;19913;-68
2022/01/25 10:01:54;;;;;;;;;;;4.50;98.50;;;;;;5046447;28;19958;-68
2022/01/25 10:04:29;;;;;;;;;;;4.50;98.50;;;;;;5045051;28;20621;-69
2022/01/25 10:06:54;;;;;;;;;;;4.50;98.50;;;;;;5046999;28;20377;-68
2022/01/25 10:09:20;;;;;;;;;;;4.40;98.40;;;;;;5049047;28;19963;-68
2022/01/25 10:11:46;;;;;;;;;;;4.50;98.50;;;;;;5048351;28;19942;-69
2022/01/25 10:14:11;;;;;;;;;;;4.50;98.50;;;;;;5063450;28;19943;-68
2022/01/25 10:16:38;;;;;;;;;;;4.50;98.40;;;;;;5045611;28;19925;-68
2022/01/25 10:19:05;;;;;;;;;;;4.50;98.40;;;;;;5045020;28;19909;-68
2022/01/25 10:21:32;;;;;;;;;;;4.50;98.50;;;;;;5042989;28;19913;-68
2022/01/25 10:24:07;;;;;;;;;;;4.50;98.40;;;;;;5048009;28;20473;-68
2022/01/25 10:26:39;;;;;;;;;;;4.50;98.40;;;;;;5044196;28;20000;-68
2022/01/25 10:29:05;;;;;;;;;;;4.50;98.40;;;;;;5045500;28;19916;-68
2022/01/25 10:31:41;;;;;;;;;;;4.50;98.40;;;;;;5041664;28;20399;-68
2022/01/25 10:34:08;;;;;;;;;;;4.50;98.40;;;;;;5049842;28;19916;-68
2022/01/25 10:36:38;;;;;;;;;;;4.50;98.40;;;;;;5042377;28;20054;-68
2022/01/25 10:39:04;;;;;;;;;;;4.50;98.40;;;;;;5046649;28;20008;-68
2022/01/25 10:41:31;;;;;;;;;;;4.50;98.40;;;;;;5063732;28;20348;-68
2022/01/25 10:43:57;;;;;;;;;;;4.50;98.40;;;;;;5044381;28;19990;-68
2022/01/25 10:46:30;;;;;;;;;;;4.50;98.40;;;;;;5045512;28;19955;-68
2022/01/25 10:49:06;;;;;;;;;;;4.50;98.40;;;;;;5045432;28;19932;-68
2022/01/25 10:51:34;;;;;;;;;;;4.60;98.40;;;;;;5043072;28;19925;-68
2022/01/25 10:54:02;;;;;;;;;;;4.50;98.40;;;;;;5028207;28;19967;-68
2022/01/25 10:56:36;;;;;;;;;;;4.50;98.40;;;;;;5025608;28;19917;-68
2022/01/25 10:59:02;;;;;;;;;;;4.50;98.40;;;;;;5045609;28;20006;-68
2022/01/25 11:01:51;;;;;;;;;;;4.60;98.40;;;;;;5048674;28;19936;-68
2022/01/25 11:04:18;;;;;;;;;;;4.60;98.40;;;;;;5051796;28;19979;-68
2022/01/25 11:06:44;;;;;;;;;;;4.60;98.40;;;;;;5046873;28;19919;-68
2022/01/25 11:09:11;;;;;;;;;;;4.60;98.60;;;;;;5044560;28;19948;-68
2022/01/25 11:11:40;;;;;;;;;;;4.60;98.40;;;;;;5045599;28;19928;-68
2022/01/25 11:16:52;;;;;;;;;;;4.60;98.40;;;;;;5053075;28;19923;-68
2022/01/25 11:19:18;;;;;;;;;;;4.60;98.40;;;;;;5044193;28;20596;-69
2022/01/25 11:21:44;;;;;;;;;;;4.60;98.40;;;;;;5044066;28;20258;-68
2022/01/25 11:24:13;;;;;;;;;;;4.60;98.40;;;;;;5037344;28;19928;-68
2022/01/25 11:26:40;;;;;;;;;;;4.60;98.40;;;;;;5057675;28;19935;-69
2022/01/25 11:29:06;;;;;;;;;;;4.60;98.40;;;;;;5042619;28;19925;-68
2022/01/25 11:31:32;;;;;;;;;;;4.60;98.30;;;;;;5042580;28;20003;-68
2022/01/25 11:33:58;;;;;;;;;;;4.60;98.40;;;;;;5044538;28;20452;-68
2022/01/25 11:36:23;;;;;;;;;;;4.70;98.40;;;;;;5044937;28;20605;-68
2022/01/25 11:38:50;;;;;;;;;;;4.60;98.30;;;;;;5043428;28;19921;-68
2022/01/25 11:41:17;;;;;;;;;;;4.70;98.40;;;;;;5044193;28;19931;-68
2022/01/25 11:43:44;;;;;;;;;;;4.60;98.40;;;;;;5047282;28;20829;-68
2022/01/25 11:46:10;;;;;;;;;;;4.60;98.30;;;;;;5026567;28;19967;-68
2022/01/25 11:48:40;;;;;;;;;;;4.70;98.30;;;;;;5043924;28;19960;-69
2022/01/25 11:51:11;;;;;;;;;;;4.60;98.30;;;;;;5044792;28;19984;-68
2022/01/25 11:53:39;;;;;;;;;;;4.60;98.30;;;;;;5043861;28;19917;-69
2022/01/25 11:56:07;;;;;;;;;;;4.60;98.30;;;;;;5043340;28;19917;-69
2022/01/25 11:58:33;;;;;;;;;;;4.70;98.30;;;;;;5043625;28;19920;-68
2022/01/25 12:01:00;;;;;;;;;;;4.70;98.30;;;;;;5043910;28;19920;-68
2022/01/25 12:03:28;;;;;;;;;;;4.70;98.30;;;;;;5045601;28;19925;-68
2022/01/25 12:06:05;;;;;;;;;;;4.70;98.30;;;;;;5060509;28;19913;-68
2022/01/25 12:08:40;;;;;;;;;;;4.70;98.30;;;;;;5041599;28;20540;-68
2022/01/25 12:11:24;;;;;;;;;;;4.70;98.20;;;;;;5046048;28;19925;-68
2022/01/25 12:14:20;;;;;;;;;;;4.70;98.20;;;;;;5042557;28;19923;-68
2022/01/25 12:16:57;;;;;;;;;;;4.70;98.20;;;;;;5035709;28;20731;-68
2022/01/25 12:19:34;;;;;;;;;;;4.70;98.20;;;;;;5044469;28;19959;-69
2022/01/25 12:22:12;;;;;;;;;;;4.70;98.20;;;;;;5043440;28;20443;-68
2022/01/25 12:24:46;;;;;;;;;;;4.70;98.20;;;;;;5043650;28;20592;-68
2022/01/25 12:30:13;;;;;;;;;;;4.70;98.20;;;;;;5042214;28;19956;-68
2022/01/25 12:32:58;;;;;;;;;;;4.70;98.20;;;;;;5041811;28;19928;-69
2022/01/25 12:35:33;;;;;;;;;;;4.70;98.20;;;;;;5042851;28;19959;-68
2022/01/25 12:37:59;;;;;;;;;;;4.70;98.30;;;;;;5041814;28;19917;-68
2022/01/25 12:40:25;;;;;;;;;;;4.70;98.30;;;;;;5058845;28;20532;-68
2022/01/25 12:42:51;;;;;;;;;;;4.70;98.20;;;;;;5042526;28;19917;-68
2022/01/25 12:45:17;;;;;;;;;;;4.80;98.30;;;;;;5043212;28;19917;-68
2022/01/25 12:47:50;;;;;;;;;;;4.80;98.30;;;;;;5039178;28;19917;-69
2022/01/25 12:50:15;;;;;;;;;;;4.80;98.30;;;;;;5043976;28;19944;-69
2022/01/25 12:52:41;;;;;;;;;;;4.70;98.30;;;;;;5046125;28;20466;-69
2022/01/25 12:55:07;;;;;;;;;;;4.80;98.30;;;;;;5044130;28;19913;-69
2022/01/25 12:57:34;;;;;;;;;;;4.80;98.30;;;;;;5046955;28;19917;-68
2022/01/25 12:59:59;;;;;;;;;;;4.80;98.30;;;;;;5047934;28;20015;-68
2022/01/25 13:02:27;;;;;;;;;;;4.80;98.30;;;;;;5047831;28;19916;-68
2022/01/25 13:04:53;;;;;;;;;;;4.80;98.30;;;;;;5046253;28;19920;-68
2022/01/25 13:07:18;;;;;;;;;;;4.70;98.20;;;;;;5051299;28;19912;-69
2022/01/25 13:09:46;;;;;;;;;;;4.80;98.30;;;;;;5048176;28;19970;-68
2022/01/25 13:12:24;;;;;;;;;;;4.80;98.30;;;;;;5046396;28;20731;-68
2022/01/25 13:15:02;;;;;;;;;;;4.80;98.30;;;;;;5046909;28;19943;-68
2022/01/25 13:17:28;;;;;;;;;;;4.70;98.20;;;;;;5052514;28;19916;-68
2022/01/25 13:19:57;;;;;;;;;;;4.80;98.30;;;;;;5063786;28;19961;-68
2022/01/25 13:22:31;;;;;;;;;;;4.80;98.30;;;;;;5046447;28;19966;-68
2022/01/25 13:27:35;;;;;;;;;;;4.70;98.30;;;;;;5043991;28;19937;-68
2022/01/25 13:32:50;;;;;;;;;;;4.80;98.30;;;;;;5046060;28;20000;-68
2022/01/25 13:35:23;;;;;;;;;;;4.80;98.30;;;;;;5049256;28;19913;-68
2022/01/25 13:38:07;;;;;;;;;;;4.80;98.30;;;;;;5034206;28;19916;-68
2022/01/25 13:40:49;;;;;;;;;;;4.80;98.30;;;;;;5046930;28;20004;-68
2022/01/25 13:45:53;;;;;;;;;;;4.80;98.30;;;;;;5042686;28;19978;-68
2022/01/25 13:48:21;;;;;;;;;;;4.80;98.30;;;;;;5044681;28;20013;-68
2022/01/25 13:50:51;;;;;;;;;;;4.80;98.30;;;;;;5028249;28;20536;-69
2022/01/25 13:53:17;;;;;;;;;;;4.80;98.30;;;;;;5065266;28;19917;-68
2022/01/25 13:55:47;;;;;;;;;;;4.80;98.30;;;;;;5047309;28;19925;-68
2022/01/25 13:58:23;;;;;;;;;;;4.80;98.30;;;;;;5043948;28;19975;-68
2022/01/25 14:00:49;;;;;;;;;;;4.80;98.30;;;;;;5043322;28;20189;-68
2022/01/25 14:03:17;;;;;;;;;;;4.80;98.30;;;;;;5043168;28;19916;-68
2022/01/25 14:05:43;;;;;;;;;;;4.80;98.30;;;;;;5047622;28;19939;-69
2022/01/25 14:08:08;;;;;;;;;;;4.80;98.30;;;;;;5043153;28;19921;-69
2022/01/25 14:10:34;;;;;;;;;;;4.80;98.30;;;;;;5048756;28;19928;-68
2022/01/25 14:21:53;;;;;;;;;;;4.70;98.30;;;;;;5043674;28;20563;-68
2022/01/25 14:24:27;;;;;;;;;;;4.80;98.30;;;;;;5042679;28;20003;-68
2022/01/25 14:26:53;;;;;;;;;;;4.80;98.30;;;;;;5039819;28;19916;-69
2022/01/25 14:29:22;;;;;;;;;;;4.80;98.30;;;;;;5044250;28;19920;-68
2022/01/25 14:31:48;;;;;;;;;;;4.80;98.30;;;;;;5025112;28;20023;-68
2022/01/25 14:34:14;;;;;;;;;;;4.70;98.30;;;;;;5043677;28;19920;-68
2022/01/25 14:36:43;;;;;;;;;;;4.80;98.30;;;;;;5046715;28;19924;-68
2022/01/25 14:39:09;;;;;;;;;;;4.70;98.30;;;;;;5043533;28;19987;-69
2022/01/25 14:41:36;;;;;;;;;;;4.70;98.30;;;;;;5047959;28;19921;-68
2022/01/25 14:44:09;;;;;;;;;;;4.70;98.30;;;;;;5030079;28;19912;-68
2022/01/25 14:46:40;;;;;;;;;;;4.70;98.30;;;;;;5045352;28;19928;-68
2022/01/25 14:49:13;;;;;;;;;;;4.80;98.30;;;;;;5023283;28;20761;-68
2022/01/25 14:51:43;;;;;;;;;;;4.80;98.30;;;;;;5044197;28;19920;-68
2022/01/25 14:54:10;;;;;;;;;;;4.70;98.30;;;;;;5042934;28;19917;-68
2022/01/25 14:56:37;;;;;;;;;;;4.70;98.30;;;;;;5047531;28;19927;-68
2022/01/25 15:01:50;;;;;;;;;;;4.70;98.30;;;;;;5036618;28;20342;-68
2022/01/25 15:04:15;;;;;;;;;;;4.70;98.30;;;;;;5041548;28;19916;-68
2022/01/25 15:06:41;;;;;;;;;;;4.70;98.30;;;;;;5042169;28;20523;-68
2022/01/25 15:09:08;;;;;;;;;;;4.70;98.30;;;;;;5044109;28;20015;-68
2022/01/25 15:11:33;;;;;;;;;;;4.70;98.30;;;;;;5041921;28;19921;-68
2022/01/25 15:14:07;;;;;;;;;;;4.70;98.30;;;;;;5045625;28;20015;-68
2022/01/25 15:16:33;;;;;;;;;;;4.70;98.30;;;;;;5041555;28;19917;-68
2022/01/25 15:18:58;;;;;;;;;;;4.70;98.30;;;;;;5044369;28;20432;-68
2022/01/25 15:21:24;;;;;;;;;;;4.70;98.30;;;;;;5043668;28;19920;-68
2022/01/25 15:23:50;;;;;;;;;;;4.70;98.30;;;;;;5045825;28;19917;-68
2022/01/25 15:26:17;;;;;;;;;;;4.70;98.40;;;;;;5042943;28;20266;-69
2022/01/25 15:28:47;;;;;;;;;;;4.70;98.40;;;;;;5042844;28;19920;-68
2022/01/25 15:31:14;;;;;;;;;;;4.70;98.40;;;;;;5043155;28;19917;-68
2022/01/25 15:33:40;;;;;;;;;;;4.70;98.40;;;;;;5044844;28;19913;-68
2022/01/25 15:36:07;;;;;;;;;;;4.60;98.30;;;;;;5043089;28;19919;-68
2022/01/25 15:38:33;;;;;;;;;;;4.60;98.30;;;;;;5041941;28;19923;-68
2022/01/25 15:41:00;;;;;;;;;;;4.70;98.40;;;;;;5047314;28;19916;-68
2022/01/25 15:43:30;;;;;;;;;;;4.60;98.30;;;;;;5040977;28;19920;-68
2022/01/25 15:46:07;;;;;;;;;;;4.60;98.30;;;;;;5044043;28;19920;-68
2022/01/25 15:48:33;;;;;;;;;;;4.60;98.30;;;;;;5050411;28;19995;-69
2022/01/25 15:50:59;;;;;;;;;;;4.60;98.30;;;;;;5049518;28;19919;-68
2022/01/25 15:53:25;;;;;;;;;;;4.60;98.40;;;;;;5043641;28;19913;-69
2022/01/25 15:55:51;;;;;;;;;;;4.60;98.30;;;;;;5049738;28;19928;-69
2022/01/25 15:58:18;;;;;;;;;;;4.60;98.30;;;;;;5041984;28;19920;-68
2022/01/25 16:00:52;;;;;;;;;;;4.60;98.40;;;;;;5046296;28;19916;-69
2022/01/25 16:03:19;;;;;;;;;;;4.60;98.40;;;;;;5042770;28;19927;-68
2022/01/25 16:05:45;;;;;;;;;;;4.60;98.60;;;;;;5046951;28;20485;-68
2022/01/25 16:08:11;;;;;;;;;;;4.60;98.40;;;;;;5041996;28;20433;-68
2022/01/25 16:10:38;;;;;;;;;;;4.60;98.40;;;;;;5044216;28;19913;-68
2022/01/25 16:13:04;;;;;;;;;;;4.60;98.40;;;;;;5043719;28;20528;-68
2022/01/25 16:15:30;;;;;;;;;;;4.60;98.40;;;;;;5044547;28;20047;-68
2022/01/25 16:17:55;;;;;;;;;;;4.60;98.40;;;;;;5041812;28;20535;-68
2022/01/25 16:20:21;;;;;;;;;;;4.60;98.40;;;;;;5042336;28;20885;-68
2022/01/25 16:22:46;;;;;;;;;;;4.50;98.40;;;;;;5042250;28;19913;-68
2022/01/25 16:25:12;;;;;;;;;;;4.50;98.40;;;;;;5043214;28;20031;-68
2022/01/25 16:27:37;;;;;;;;;;;4.50;98.30;;;;;;5043015;28;19913;-68
2022/01/25 16:30:04;;;;;;;;;;;4.60;98.40;;;;;;5040597;28;20519;-68
2022/01/25 16:32:34;;;;;;;;;;;4.60;98.40;;;;;;5041555;28;19926;-68
2022/01/25 16:35:00;;;;;;;;;;;4.60;98.40;;;;;;5042750;28;20683;-68
2022/01/25 16:37:26;;;;;;;;;;;4.50;98.30;;;;;;5048493;28;19920;-68
2022/01/25 16:39:52;;;;;;;;;;;4.50;98.30;;;;;;5041193;28;19954;-69
2022/01/25 16:42:17;;;;;;;;;;;4.50;98.30;;;;;;5053343;28;19917;-68
2022/01/25 16:44:44;;;;;;;;;;;4.50;98.30;;;;;;5042902;28;19924;-68
2022/01/25 16:47:10;;;;;;;;;;;4.50;98.40;;;;;;5044628;28;20377;-68